sensor_id;sensor_type;location;lat;lon;timestamp;P1;durP1;ratioP1;P2;durP2;ratioP2
3066;SDS011;1544;48.834;9.194;2023-11-22T00:00:42;2.40;;;2.20;;
3066;SDS011;1544;48.834;9.194;2023-11-22T00:03:19;2.50;;;2.30;;
3066;SDS011;1544;48.834;9.194;2023-11-22T00:05:55;2.90;;;2.50;;
3066;SDS011;1544;48.834;9.194;2023-11-22T00:08:31;2.73;;;2.53;;
3066;SDS011;1544;48.834;9.194;2023-11-22T00:11:07;2.87;;;2.67;;
3066;SDS011;1544;48.834;9.194;2023-11-22T00:13:43;2.93;;;2.73;;
3066;SDS011;1544;48.834;9.194;2023-11-22T00:16:19;3.17;;;2.87;;
3066;SDS011;1544;48.834;9.194;2023-11-22T00:18:55;2.60;;;2.30;;
3066;SDS011;1544;48.834;9.194;2023-11-22T00:21:30;2.80;;;2.60;;
3066;SDS011;1544;48.834;9.194;2023-11-22T00:24:07;3.70;;;3.17;;
3066;SDS011;1544;48.834;9.194;2023-11-22T00:26:44;3.60;;;3.03;;
3066;SDS011;1544;48.834;9.194;2023-11-22T00:29:20;3.33;;;3.03;;
3066;SDS011;1544;48.834;9.194;2023-11-22T00:31:56;4.63;;;3.90;;
3066;SDS011;1544;48.834;9.194;2023-11-22T00:34:32;4.13;;;3.73;;
3066;SDS011;1544;48.834;9.194;2023-11-22T00:37:08;3.50;;;3.20;;
3066;SDS011;1544;48.834;9.194;2023-11-22T00:39:44;4.97;;;3.57;;
3066;SDS011;1544;48.834;9.194;2023-11-22T00:42:20;4.60;;;3.50;;
3066;SDS011;1544;48.834;9.194;2023-11-22T00:44:56;3.73;;;3.43;;
3066;SDS011;1544;48.834;9.194;2023-11-22T00:47:32;4.13;;;3.73;;
3066;SDS011;1544;48.834;9.194;2023-11-22T00:50:09;4.30;;;3.87;;
3066;SDS011;1544;48.834;9.194;2023-11-22T00:52:46;5.00;;;4.30;;
3066;SDS011;1544;48.834;9.194;2023-11-22T00:55:23;7.00;;;4.33;;
3066;SDS011;1544;48.834;9.194;2023-11-22T00:57:59;3.73;;;3.23;;
3066;SDS011;1544;48.834;9.194;2023-11-22T01:00:39;4.40;;;3.90;;
3066;SDS011;1544;48.834;9.194;2023-11-22T01:03:16;4.47;;;4.07;;
3066;SDS011;1544;48.834;9.194;2023-11-22T01:05:52;6.10;;;3.97;;
3066;SDS011;1544;48.834;9.194;2023-11-22T01:08:28;6.40;;;3.70;;
3066;SDS011;1544;48.834;9.194;2023-11-22T01:11:04;3.93;;;3.60;;
3066;SDS011;1544;48.834;9.194;2023-11-22T01:13:43;3.53;;;3.23;;
3066;SDS011;1544;48.834;9.194;2023-11-22T01:16:19;2.90;;;2.70;;
3066;SDS011;1544;48.834;9.194;2023-11-22T01:18:55;3.40;;;3.10;;
3066;SDS011;1544;48.834;9.194;2023-11-22T01:21:31;4.37;;;3.83;;
3066;SDS011;1544;48.834;9.194;2023-11-22T01:24:07;5.20;;;3.13;;
3066;SDS011;1544;48.834;9.194;2023-11-22T01:26:44;3.73;;;3.33;;
3066;SDS011;1544;48.834;9.194;2023-11-22T01:29:20;3.80;;;3.40;;
3066;SDS011;1544;48.834;9.194;2023-11-22T01:31:56;3.57;;;3.23;;
3066;SDS011;1544;48.834;9.194;2023-11-22T01:34:32;4.00;;;3.60;;
3066;SDS011;1544;48.834;9.194;2023-11-22T01:37:09;4.50;;;3.83;;
3066;SDS011;1544;48.834;9.194;2023-11-22T01:39:45;2.83;;;2.63;;
3066;SDS011;1544;48.834;9.194;2023-11-22T01:42:21;7.27;;;2.90;;
3066;SDS011;1544;48.834;9.194;2023-11-22T01:44:59;2.63;;;2.47;;
3066;SDS011;1544;48.834;9.194;2023-11-22T01:47:35;3.73;;;3.23;;
3066;SDS011;1544;48.834;9.194;2023-11-22T01:50:12;3.13;;;2.43;;
3066;SDS011;1544;48.834;9.194;2023-11-22T01:52:50;3.03;;;2.73;;
3066;SDS011;1544;48.834;9.194;2023-11-22T01:55:26;3.90;;;3.50;;
3066;SDS011;1544;48.834;9.194;2023-11-22T01:58:02;3.80;;;2.90;;
3066;SDS011;1544;48.834;9.194;2023-11-22T02:00:45;2.83;;;2.63;;
3066;SDS011;1544;48.834;9.194;2023-11-22T02:03:27;2.67;;;2.47;;
3066;SDS011;1544;48.834;9.194;2023-11-22T02:06:06;2.47;;;2.27;;
3066;SDS011;1544;48.834;9.194;2023-11-22T02:08:44;4.83;;;2.90;;
3066;SDS011;1544;48.834;9.194;2023-11-22T02:11:21;2.90;;;2.57;;
3066;SDS011;1544;48.834;9.194;2023-11-22T02:13:58;4.83;;;2.60;;
3066;SDS011;1544;48.834;9.194;2023-11-22T02:16:34;2.90;;;2.70;;
3066;SDS011;1544;48.834;9.194;2023-11-22T02:19:13;3.30;;;3.00;;
3066;SDS011;1544;48.834;9.194;2023-11-22T02:21:51;2.73;;;2.20;;
3066;SDS011;1544;48.834;9.194;2023-11-22T02:24:28;3.00;;;2.67;;
3066;SDS011;1544;48.834;9.194;2023-11-22T02:27:03;2.60;;;2.10;;
3066;SDS011;1544;48.834;9.194;2023-11-22T02:29:39;3.00;;;2.80;;
3066;SDS011;1544;48.834;9.194;2023-11-22T02:32:15;3.20;;;2.90;;
3066;SDS011;1544;48.834;9.194;2023-11-22T02:34:51;2.43;;;2.13;;
3066;SDS011;1544;48.834;9.194;2023-11-22T02:37:28;2.30;;;2.10;;
3066;SDS011;1544;48.834;9.194;2023-11-22T02:40:05;2.63;;;2.43;;
3066;SDS011;1544;48.834;9.194;2023-11-22T02:42:55;3.27;;;2.80;;
3066;SDS011;1544;48.834;9.194;2023-11-22T02:45:36;2.90;;;2.47;;
3066;SDS011;1544;48.834;9.194;2023-11-22T02:48:16;2.70;;;2.50;;
3066;SDS011;1544;48.834;9.194;2023-11-22T02:50:53;3.13;;;2.70;;
3066;SDS011;1544;48.834;9.194;2023-11-22T02:53:30;3.80;;;3.27;;
3066;SDS011;1544;48.834;9.194;2023-11-22T02:56:07;3.13;;;2.83;;
3066;SDS011;1544;48.834;9.194;2023-11-22T02:58:44;3.57;;;2.80;;
3066;SDS011;1544;48.834;9.194;2023-11-22T03:01:21;3.53;;;3.23;;
3066;SDS011;1544;48.834;9.194;2023-11-22T03:03:57;3.87;;;3.27;;
3066;SDS011;1544;48.834;9.194;2023-11-22T03:06:35;4.80;;;3.13;;
3066;SDS011;1544;48.834;9.194;2023-11-22T03:09:11;3.30;;;3.00;;
3066;SDS011;1544;48.834;9.194;2023-11-22T03:11:49;3.23;;;2.97;;
3066;SDS011;1544;48.834;9.194;2023-11-22T03:14:25;2.90;;;2.70;;
3066;SDS011;1544;48.834;9.194;2023-11-22T03:17:01;3.53;;;3.23;;
3066;SDS011;1544;48.834;9.194;2023-11-22T03:19:38;3.53;;;3.03;;
3066;SDS011;1544;48.834;9.194;2023-11-22T03:22:15;3.23;;;2.93;;
3066;SDS011;1544;48.834;9.194;2023-11-22T03:24:51;3.13;;;2.83;;
3066;SDS011;1544;48.834;9.194;2023-11-22T03:27:28;3.37;;;3.07;;
3066;SDS011;1544;48.834;9.194;2023-11-22T03:30:04;3.20;;;2.90;;
3066;SDS011;1544;48.834;9.194;2023-11-22T03:32:47;2.70;;;2.50;;
3066;SDS011;1544;48.834;9.194;2023-11-22T03:35:25;3.30;;;3.00;;
3066;SDS011;1544;48.834;9.194;2023-11-22T03:38:01;3.33;;;3.03;;
3066;SDS011;1544;48.834;9.194;2023-11-22T03:40:38;3.30;;;3.00;;
3066;SDS011;1544;48.834;9.194;2023-11-22T03:43:14;3.63;;;3.17;;
3066;SDS011;1544;48.834;9.194;2023-11-22T03:45:50;3.53;;;3.23;;
3066;SDS011;1544;48.834;9.194;2023-11-22T03:48:26;3.33;;;3.07;;
3066;SDS011;1544;48.834;9.194;2023-11-22T03:51:02;4.00;;;3.57;;
3066;SDS011;1544;48.834;9.194;2023-11-22T03:53:38;4.33;;;3.57;;
3066;SDS011;1544;48.834;9.194;2023-11-22T03:56:14;3.57;;;3.27;;
3066;SDS011;1544;48.834;9.194;2023-11-22T03:58:50;4.07;;;3.73;;
3066;SDS011;1544;48.834;9.194;2023-11-22T04:01:26;3.40;;;3.10;;
3066;SDS011;1544;48.834;9.194;2023-11-22T04:04:02;4.53;;;3.53;;
3066;SDS011;1544;48.834;9.194;2023-11-22T04:06:38;3.63;;;3.33;;
3066;SDS011;1544;48.834;9.194;2023-11-22T04:09:15;4.13;;;3.73;;
3066;SDS011;1544;48.834;9.194;2023-11-22T04:11:55;3.63;;;3.33;;
3066;SDS011;1544;48.834;9.194;2023-11-22T04:14:31;3.40;;;3.20;;
3066;SDS011;1544;48.834;9.194;2023-11-22T04:17:07;4.07;;;3.30;;
3066;SDS011;1544;48.834;9.194;2023-11-22T04:19:43;3.03;;;2.73;;
3066;SDS011;1544;48.834;9.194;2023-11-22T04:22:20;4.33;;;3.70;;
3066;SDS011;1544;48.834;9.194;2023-11-22T04:24:56;3.20;;;2.90;;
3066;SDS011;1544;48.834;9.194;2023-11-22T04:30:08;3.70;;;3.40;;
3066;SDS011;1544;48.834;9.194;2023-11-22T04:32:50;3.93;;;3.40;;
3066;SDS011;1544;48.834;9.194;2023-11-22T04:35:26;3.37;;;3.07;;
3066;SDS011;1544;48.834;9.194;2023-11-22T04:38:02;3.47;;;3.17;;
3066;SDS011;1544;48.834;9.194;2023-11-22T04:40:39;3.37;;;3.07;;
3066;SDS011;1544;48.834;9.194;2023-11-22T04:43:15;3.00;;;2.80;;
3066;SDS011;1544;48.834;9.194;2023-11-22T04:45:51;3.77;;;3.47;;
3066;SDS011;1544;48.834;9.194;2023-11-22T04:48:26;3.20;;;2.60;;
3066;SDS011;1544;48.834;9.194;2023-11-22T04:51:02;3.30;;;2.97;;
3066;SDS011;1544;48.834;9.194;2023-11-22T04:53:39;4.03;;;3.63;;
3066;SDS011;1544;48.834;9.194;2023-11-22T04:56:15;2.83;;;2.63;;
3066;SDS011;1544;48.834;9.194;2023-11-22T04:58:52;3.33;;;3.03;;
3066;SDS011;1544;48.834;9.194;2023-11-22T05:01:31;3.83;;;3.53;;
3066;SDS011;1544;48.834;9.194;2023-11-22T05:04:08;3.10;;;2.90;;
3066;SDS011;1544;48.834;9.194;2023-11-22T05:06:45;3.30;;;2.73;;
3066;SDS011;1544;48.834;9.194;2023-11-22T05:09:21;4.30;;;2.30;;
3066;SDS011;1544;48.834;9.194;2023-11-22T05:11:57;3.07;;;2.73;;
3066;SDS011;1544;48.834;9.194;2023-11-22T05:14:34;7.90;;;2.73;;
3066;SDS011;1544;48.834;9.194;2023-11-22T05:17:10;3.47;;;3.00;;
3066;SDS011;1544;48.834;9.194;2023-11-22T05:19:46;3.60;;;3.23;;
3066;SDS011;1544;48.834;9.194;2023-11-22T05:22:22;2.73;;;2.53;;
3066;SDS011;1544;48.834;9.194;2023-11-22T05:24:58;3.37;;;3.03;;
3066;SDS011;1544;48.834;9.194;2023-11-22T05:27:34;3.10;;;2.80;;
3066;SDS011;1544;48.834;9.194;2023-11-22T05:30:10;3.20;;;2.90;;
3066;SDS011;1544;48.834;9.194;2023-11-22T05:32:47;4.33;;;2.93;;
3066;SDS011;1544;48.834;9.194;2023-11-22T05:35:24;2.77;;;2.43;;
3066;SDS011;1544;48.834;9.194;2023-11-22T05:38:00;3.07;;;2.63;;
3066;SDS011;1544;48.834;9.194;2023-11-22T05:40:37;4.17;;;3.00;;
3066;SDS011;1544;48.834;9.194;2023-11-22T05:43:14;2.83;;;2.57;;
3066;SDS011;1544;48.834;9.194;2023-11-22T05:45:50;3.20;;;2.70;;
3066;SDS011;1544;48.834;9.194;2023-11-22T05:48:26;3.30;;;3.00;;
3066;SDS011;1544;48.834;9.194;2023-11-22T05:51:02;3.07;;;2.60;;
3066;SDS011;1544;48.834;9.194;2023-11-22T05:53:38;3.73;;;3.30;;
3066;SDS011;1544;48.834;9.194;2023-11-22T05:56:14;4.57;;;3.80;;
3066;SDS011;1544;48.834;9.194;2023-11-22T05:58:52;3.10;;;2.90;;
3066;SDS011;1544;48.834;9.194;2023-11-22T06:01:28;4.30;;;3.37;;
3066;SDS011;1544;48.834;9.194;2023-11-22T06:04:04;2.60;;;2.40;;
3066;SDS011;1544;48.834;9.194;2023-11-22T06:06:40;2.67;;;2.27;;
3066;SDS011;1544;48.834;9.194;2023-11-22T06:09:17;4.53;;;2.80;;
3066;SDS011;1544;48.834;9.194;2023-11-22T06:11:55;2.67;;;2.47;;
3066;SDS011;1544;48.834;9.194;2023-11-22T06:14:31;2.70;;;2.47;;
3066;SDS011;1544;48.834;9.194;2023-11-22T06:17:07;2.33;;;2.13;;
3066;SDS011;1544;48.834;9.194;2023-11-22T06:19:43;3.03;;;2.00;;
3066;SDS011;1544;48.834;9.194;2023-11-22T06:22:19;3.70;;;2.67;;
3066;SDS011;1544;48.834;9.194;2023-11-22T06:24:56;3.03;;;2.73;;
3066;SDS011;1544;48.834;9.194;2023-11-22T06:27:32;3.30;;;3.00;;
3066;SDS011;1544;48.834;9.194;2023-11-22T06:30:09;2.87;;;2.63;;
3066;SDS011;1544;48.834;9.194;2023-11-22T06:32:45;3.27;;;2.90;;
3066;SDS011;1544;48.834;9.194;2023-11-22T06:35:21;3.70;;;2.37;;
3066;SDS011;1544;48.834;9.194;2023-11-22T06:37:58;4.87;;;2.40;;
3066;SDS011;1544;48.834;9.194;2023-11-22T06:40:34;2.97;;;2.57;;
3066;SDS011;1544;48.834;9.194;2023-11-22T06:43:10;2.70;;;2.33;;
3066;SDS011;1544;48.834;9.194;2023-11-22T06:45:46;2.00;;;1.90;;
3066;SDS011;1544;48.834;9.194;2023-11-22T06:48:22;3.33;;;2.00;;
3066;SDS011;1544;48.834;9.194;2023-11-22T06:50:58;2.77;;;2.20;;
3066;SDS011;1544;48.834;9.194;2023-11-22T06:53:35;2.90;;;2.70;;
3066;SDS011;1544;48.834;9.194;2023-11-22T06:56:11;3.57;;;2.47;;
3066;SDS011;1544;48.834;9.194;2023-11-22T06:58:47;2.20;;;2.00;;
3066;SDS011;1544;48.834;9.194;2023-11-22T07:01:23;2.67;;;2.33;;
3066;SDS011;1544;48.834;9.194;2023-11-22T07:04:02;4.50;;;2.47;;
3066;SDS011;1544;48.834;9.194;2023-11-22T07:06:39;3.77;;;1.83;;
3066;SDS011;1544;48.834;9.194;2023-11-22T07:09:15;3.80;;;2.10;;
3066;SDS011;1544;48.834;9.194;2023-11-22T07:11:52;2.37;;;2.13;;
3066;SDS011;1544;48.834;9.194;2023-11-22T07:14:28;2.50;;;2.30;;
3066;SDS011;1544;48.834;9.194;2023-11-22T07:17:04;1.63;;;1.53;;
3066;SDS011;1544;48.834;9.194;2023-11-22T07:19:42;4.13;;;2.07;;
3066;SDS011;1544;48.834;9.194;2023-11-22T07:22:22;2.27;;;2.07;;
3066;SDS011;1544;48.834;9.194;2023-11-22T07:24:59;2.50;;;2.30;;
3066;SDS011;1544;48.834;9.194;2023-11-22T07:27:37;3.30;;;2.17;;
3066;SDS011;1544;48.834;9.194;2023-11-22T07:30:14;2.13;;;1.93;;
3066;SDS011;1544;48.834;9.194;2023-11-22T07:32:51;1.90;;;1.70;;
3066;SDS011;1544;48.834;9.194;2023-11-22T07:35:27;2.00;;;1.90;;
3066;SDS011;1544;48.834;9.194;2023-11-22T07:38:04;2.03;;;1.87;;
3066;SDS011;1544;48.834;9.194;2023-11-22T07:40:40;1.70;;;1.60;;
3066;SDS011;1544;48.834;9.194;2023-11-22T07:43:17;2.00;;;1.80;;
3066;SDS011;1544;48.834;9.194;2023-11-22T07:45:53;4.40;;;2.13;;
3066;SDS011;1544;48.834;9.194;2023-11-22T07:48:29;3.27;;;2.00;;
3066;SDS011;1544;48.834;9.194;2023-11-22T07:51:05;1.50;;;1.40;;
3066;SDS011;1544;48.834;9.194;2023-11-22T07:53:42;2.47;;;1.90;;
3066;SDS011;1544;48.834;9.194;2023-11-22T07:56:19;2.27;;;2.07;;
3066;SDS011;1544;48.834;9.194;2023-11-22T07:58:55;1.90;;;1.63;;
3066;SDS011;1544;48.834;9.194;2023-11-22T08:01:31;2.00;;;1.80;;
3066;SDS011;1544;48.834;9.194;2023-11-22T08:04:07;2.40;;;2.10;;
3066;SDS011;1544;48.834;9.194;2023-11-22T08:06:45;2.00;;;1.60;;
3066;SDS011;1544;48.834;9.194;2023-11-22T08:09:22;2.50;;;1.70;;
3066;SDS011;1544;48.834;9.194;2023-11-22T08:11:59;2.47;;;2.13;;
3066;SDS011;1544;48.834;9.194;2023-11-22T08:14:41;2.13;;;1.87;;
3066;SDS011;1544;48.834;9.194;2023-11-22T08:17:19;2.47;;;1.97;;
3066;SDS011;1544;48.834;9.194;2023-11-22T08:19:56;2.30;;;2.10;;
3066;SDS011;1544;48.834;9.194;2023-11-22T08:22:32;2.70;;;2.30;;
3066;SDS011;1544;48.834;9.194;2023-11-22T08:25:10;2.90;;;2.67;;
3066;SDS011;1544;48.834;9.194;2023-11-22T08:27:48;3.97;;;3.57;;
3066;SDS011;1544;48.834;9.194;2023-11-22T08:30:24;4.53;;;3.90;;
3066;SDS011;1544;48.834;9.194;2023-11-22T08:33:01;3.80;;;2.83;;
3066;SDS011;1544;48.834;9.194;2023-11-22T08:35:37;3.70;;;2.93;;
3066;SDS011;1544;48.834;9.194;2023-11-22T08:38:14;2.40;;;2.20;;
3066;SDS011;1544;48.834;9.194;2023-11-22T08:40:50;4.30;;;2.50;;
3066;SDS011;1544;48.834;9.194;2023-11-22T08:43:26;3.33;;;2.30;;
3066;SDS011;1544;48.834;9.194;2023-11-22T08:46:02;2.57;;;2.37;;
3066;SDS011;1544;48.834;9.194;2023-11-22T08:48:49;3.00;;;2.50;;
3066;SDS011;1544;48.834;9.194;2023-11-22T08:51:28;3.97;;;2.77;;
3066;SDS011;1544;48.834;9.194;2023-11-22T08:54:04;4.47;;;4.00;;
3066;SDS011;1544;48.834;9.194;2023-11-22T08:56:40;4.43;;;3.30;;
3066;SDS011;1544;48.834;9.194;2023-11-22T08:59:17;4.03;;;2.53;;
3066;SDS011;1544;48.834;9.194;2023-11-22T09:01:53;2.73;;;2.43;;
3066;SDS011;1544;48.834;9.194;2023-11-22T09:04:30;3.23;;;2.60;;
3066;SDS011;1544;48.834;9.194;2023-11-22T09:07:07;3.53;;;2.77;;
3066;SDS011;1544;48.834;9.194;2023-11-22T09:09:45;2.47;;;2.27;;
3066;SDS011;1544;48.834;9.194;2023-11-22T09:12:21;3.37;;;3.07;;
3066;SDS011;1544;48.834;9.194;2023-11-22T09:14:57;3.03;;;2.57;;
3066;SDS011;1544;48.834;9.194;2023-11-22T09:17:33;3.23;;;3.00;;
3066;SDS011;1544;48.834;9.194;2023-11-22T09:20:10;3.27;;;2.97;;
3066;SDS011;1544;48.834;9.194;2023-11-22T09:22:47;4.67;;;3.10;;
3066;SDS011;1544;48.834;9.194;2023-11-22T09:25:26;4.27;;;3.03;;
3066;SDS011;1544;48.834;9.194;2023-11-22T09:28:06;4.23;;;3.20;;
3066;SDS011;1544;48.834;9.194;2023-11-22T09:30:44;3.23;;;2.93;;
3066;SDS011;1544;48.834;9.194;2023-11-22T09:33:20;2.90;;;2.60;;
3066;SDS011;1544;48.834;9.194;2023-11-22T09:35:57;3.63;;;3.20;;
3066;SDS011;1544;48.834;9.194;2023-11-22T09:38:33;4.10;;;3.60;;
3066;SDS011;1544;48.834;9.194;2023-11-22T09:41:10;3.40;;;3.10;;
3066;SDS011;1544;48.834;9.194;2023-11-22T09:43:47;4.30;;;3.20;;
3066;SDS011;1544;48.834;9.194;2023-11-22T09:46:25;4.40;;;3.00;;
3066;SDS011;1544;48.834;9.194;2023-11-22T09:49:06;2.83;;;2.63;;
3066;SDS011;1544;48.834;9.194;2023-11-22T09:51:47;3.60;;;3.10;;
3066;SDS011;1544;48.834;9.194;2023-11-22T09:54:27;3.63;;;3.27;;
3066;SDS011;1544;48.834;9.194;2023-11-22T09:57:05;2.60;;;2.30;;
3066;SDS011;1544;48.834;9.194;2023-11-22T09:59:46;3.00;;;2.70;;
3066;SDS011;1544;48.834;9.194;2023-11-22T10:02:28;3.73;;;3.37;;
3066;SDS011;1544;48.834;9.194;2023-11-22T10:05:06;4.40;;;3.30;;
3066;SDS011;1544;48.834;9.194;2023-11-22T10:07:47;3.37;;;3.07;;
3066;SDS011;1544;48.834;9.194;2023-11-22T10:10:25;3.40;;;2.90;;
3066;SDS011;1544;48.834;9.194;2023-11-22T10:13:03;3.53;;;3.23;;
3066;SDS011;1544;48.834;9.194;2023-11-22T10:15:39;2.80;;;2.60;;
3066;SDS011;1544;48.834;9.194;2023-11-22T10:18:16;3.17;;;2.87;;
3066;SDS011;1544;48.834;9.194;2023-11-22T10:20:53;4.40;;;3.30;;
3066;SDS011;1544;48.834;9.194;2023-11-22T10:23:30;3.53;;;3.20;;
3066;SDS011;1544;48.834;9.194;2023-11-22T10:26:07;4.20;;;3.30;;
3066;SDS011;1544;48.834;9.194;2023-11-22T10:28:45;3.53;;;3.20;;
3066;SDS011;1544;48.834;9.194;2023-11-22T10:31:22;3.20;;;2.60;;
3066;SDS011;1544;48.834;9.194;2023-11-22T10:34:00;5.13;;;3.00;;
3066;SDS011;1544;48.834;9.194;2023-11-22T10:36:37;3.80;;;3.50;;
3066;SDS011;1544;48.834;9.194;2023-11-22T10:39:13;3.30;;;2.73;;
3066;SDS011;1544;48.834;9.194;2023-11-22T10:41:52;3.83;;;3.27;;
3066;SDS011;1544;48.834;9.194;2023-11-22T10:44:28;3.80;;;3.50;;
3066;SDS011;1544;48.834;9.194;2023-11-22T10:47:04;4.87;;;3.50;;
3066;SDS011;1544;48.834;9.194;2023-11-22T10:49:42;3.77;;;3.10;;
3066;SDS011;1544;48.834;9.194;2023-11-22T10:52:19;4.17;;;3.30;;
3066;SDS011;1544;48.834;9.194;2023-11-22T10:55:00;3.40;;;3.10;;
3066;SDS011;1544;48.834;9.194;2023-11-22T10:57:45;4.00;;;3.60;;
3066;SDS011;1544;48.834;9.194;2023-11-22T11:00:29;3.63;;;3.33;;
3066;SDS011;1544;48.834;9.194;2023-11-22T11:03:08;3.97;;;3.10;;
3066;SDS011;1544;48.834;9.194;2023-11-22T11:05:58;3.53;;;3.23;;
3066;SDS011;1544;48.834;9.194;2023-11-22T11:08:40;3.83;;;3.47;;
3066;SDS011;1544;48.834;9.194;2023-11-22T11:11:19;3.77;;;3.47;;
3066;SDS011;1544;48.834;9.194;2023-11-22T11:13:57;4.47;;;4.07;;
3066;SDS011;1544;48.834;9.194;2023-11-22T11:16:34;3.77;;;3.47;;
3066;SDS011;1544;48.834;9.194;2023-11-22T11:19:16;4.60;;;3.13;;
3066;SDS011;1544;48.834;9.194;2023-11-22T11:21:54;4.03;;;3.23;;
3066;SDS011;1544;48.834;9.194;2023-11-22T11:24:37;3.83;;;3.37;;
3066;SDS011;1544;48.834;9.194;2023-11-22T11:27:15;4.30;;;3.77;;
3066;SDS011;1544;48.834;9.194;2023-11-22T11:29:51;4.30;;;3.93;;
3066;SDS011;1544;48.834;9.194;2023-11-22T11:32:31;5.40;;;3.90;;
3066;SDS011;1544;48.834;9.194;2023-11-22T11:35:17;4.50;;;3.83;;
3066;SDS011;1544;48.834;9.194;2023-11-22T11:37:59;4.30;;;3.90;;
3066;SDS011;1544;48.834;9.194;2023-11-22T11:40:37;4.90;;;4.13;;
3066;SDS011;1544;48.834;9.194;2023-11-22T11:43:13;8.13;;;4.63;;
3066;SDS011;1544;48.834;9.194;2023-11-22T11:45:49;4.03;;;3.57;;
3066;SDS011;1544;48.834;9.194;2023-11-22T11:48:25;4.93;;;4.33;;
3066;SDS011;1544;48.834;9.194;2023-11-22T11:51:01;4.03;;;3.73;;
3066;SDS011;1544;48.834;9.194;2023-11-22T11:53:37;5.77;;;3.93;;
3066;SDS011;1544;48.834;9.194;2023-11-22T11:56:14;4.27;;;3.87;;
3066;SDS011;1544;48.834;9.194;2023-11-22T11:58:53;4.70;;;4.07;;
3066;SDS011;1544;48.834;9.194;2023-11-22T12:01:34;5.17;;;4.67;;
3066;SDS011;1544;48.834;9.194;2023-11-22T12:04:10;5.93;;;5.20;;
3066;SDS011;1544;48.834;9.194;2023-11-22T12:06:46;5.30;;;4.37;;
3066;SDS011;1544;48.834;9.194;2023-11-22T12:09:23;6.40;;;4.30;;
3066;SDS011;1544;48.834;9.194;2023-11-22T12:12:00;4.90;;;3.97;;
3066;SDS011;1544;48.834;9.194;2023-11-22T12:14:37;5.07;;;3.87;;
3066;SDS011;1544;48.834;9.194;2023-11-22T12:17:14;4.07;;;3.63;;
3066;SDS011;1544;48.834;9.194;2023-11-22T12:19:51;5.30;;;4.33;;
3066;SDS011;1544;48.834;9.194;2023-11-22T12:22:28;4.97;;;4.20;;
3066;SDS011;1544;48.834;9.194;2023-11-22T12:25:07;4.83;;;4.03;;
3066;SDS011;1544;48.834;9.194;2023-11-22T12:27:44;5.47;;;4.20;;
3066;SDS011;1544;48.834;9.194;2023-11-22T12:30:28;4.40;;;4.00;;
3066;SDS011;1544;48.834;9.194;2023-11-22T12:33:10;4.03;;;3.70;;
3066;SDS011;1544;48.834;9.194;2023-11-22T12:35:48;4.40;;;4.00;;
3066;SDS011;1544;48.834;9.194;2023-11-22T12:38:24;4.27;;;3.77;;
3066;SDS011;1544;48.834;9.194;2023-11-22T12:41:05;4.83;;;4.20;;
3066;SDS011;1544;48.834;9.194;2023-11-22T12:43:42;4.43;;;4.03;;
3066;SDS011;1544;48.834;9.194;2023-11-22T12:46:25;4.00;;;3.60;;
3066;SDS011;1544;48.834;9.194;2023-11-22T12:49:04;3.97;;;3.40;;
3066;SDS011;1544;48.834;9.194;2023-11-22T12:51:51;4.33;;;3.93;;
3066;SDS011;1544;48.834;9.194;2023-11-22T12:54:29;6.03;;;4.37;;
3066;SDS011;1544;48.834;9.194;2023-11-22T12:57:10;4.77;;;4.10;;
3066;SDS011;1544;48.834;9.194;2023-11-22T12:59:48;4.07;;;3.63;;
3066;SDS011;1544;48.834;9.194;2023-11-22T13:02:24;5.37;;;3.80;;
3066;SDS011;1544;48.834;9.194;2023-11-22T13:05:00;4.80;;;4.30;;
3066;SDS011;1544;48.834;9.194;2023-11-22T13:07:37;4.23;;;3.83;;
3066;SDS011;1544;48.834;9.194;2023-11-22T13:10:13;4.40;;;4.00;;
3066;SDS011;1544;48.834;9.194;2023-11-22T13:12:52;7.13;;;4.70;;
3066;SDS011;1544;48.834;9.194;2023-11-22T13:15:29;5.50;;;4.30;;
3066;SDS011;1544;48.834;9.194;2023-11-22T13:18:06;6.50;;;4.80;;
3066;SDS011;1544;48.834;9.194;2023-11-22T13:20:44;5.13;;;4.63;;
3066;SDS011;1544;48.834;9.194;2023-11-22T13:23:20;4.27;;;3.87;;
3066;SDS011;1544;48.834;9.194;2023-11-22T13:25:56;5.63;;;4.60;;
3066;SDS011;1544;48.834;9.194;2023-11-22T13:28:33;5.20;;;4.70;;
3066;SDS011;1544;48.834;9.194;2023-11-22T13:31:09;4.90;;;4.40;;
3066;SDS011;1544;48.834;9.194;2023-11-22T13:33:47;5.60;;;3.80;;
3066;SDS011;1544;48.834;9.194;2023-11-22T13:36:23;8.47;;;4.90;;
3066;SDS011;1544;48.834;9.194;2023-11-22T13:38:59;7.90;;;4.73;;
3066;SDS011;1544;48.834;9.194;2023-11-22T13:41:35;5.23;;;4.20;;
3066;SDS011;1544;48.834;9.194;2023-11-22T13:44:11;4.90;;;3.77;;
3066;SDS011;1544;48.834;9.194;2023-11-22T13:46:47;5.43;;;4.03;;
3066;SDS011;1544;48.834;9.194;2023-11-22T13:49:24;4.37;;;3.97;;
3066;SDS011;1544;48.834;9.194;2023-11-22T13:52:00;4.57;;;4.10;;
3066;SDS011;1544;48.834;9.194;2023-11-22T13:54:37;6.70;;;4.60;;
3066;SDS011;1544;48.834;9.194;2023-11-22T13:57:14;6.13;;;4.13;;
3066;SDS011;1544;48.834;9.194;2023-11-22T13:59:51;5.10;;;3.90;;
3066;SDS011;1544;48.834;9.194;2023-11-22T14:02:27;4.77;;;4.27;;
3066;SDS011;1544;48.834;9.194;2023-11-22T14:05:03;7.67;;;5.77;;
3066;SDS011;1544;48.834;9.194;2023-11-22T14:07:43;6.60;;;5.07;;
3066;SDS011;1544;48.834;9.194;2023-11-22T14:10:19;6.87;;;4.57;;
3066;SDS011;1544;48.834;9.194;2023-11-22T14:12:57;7.43;;;4.80;;
3066;SDS011;1544;48.834;9.194;2023-11-22T14:15:35;5.97;;;4.43;;
3066;SDS011;1544;48.834;9.194;2023-11-22T14:18:12;5.93;;;4.57;;
3066;SDS011;1544;48.834;9.194;2023-11-22T14:20:49;7.13;;;5.37;;
3066;SDS011;1544;48.834;9.194;2023-11-22T14:23:25;4.87;;;3.80;;
3066;SDS011;1544;48.834;9.194;2023-11-22T14:26:01;4.63;;;4.23;;
3066;SDS011;1544;48.834;9.194;2023-11-22T14:28:38;6.30;;;4.63;;
3066;SDS011;1544;48.834;9.194;2023-11-22T14:31:14;6.50;;;4.90;;
3066;SDS011;1544;48.834;9.194;2023-11-22T14:33:50;7.13;;;4.30;;
3066;SDS011;1544;48.834;9.194;2023-11-22T14:36:26;6.77;;;5.03;;
3066;SDS011;1544;48.834;9.194;2023-11-22T14:39:02;5.40;;;4.73;;
3066;SDS011;1544;48.834;9.194;2023-11-22T14:41:42;5.30;;;4.77;;
3066;SDS011;1544;48.834;9.194;2023-11-22T14:44:20;5.10;;;4.60;;
3066;SDS011;1544;48.834;9.194;2023-11-22T14:46:57;4.97;;;4.10;;
3066;SDS011;1544;48.834;9.194;2023-11-22T14:49:34;4.53;;;4.13;;
3066;SDS011;1544;48.834;9.194;2023-11-22T14:52:21;4.27;;;3.93;;
3066;SDS011;1544;48.834;9.194;2023-11-22T14:54:58;7.87;;;5.07;;
3066;SDS011;1544;48.834;9.194;2023-11-22T14:57:36;4.50;;;3.70;;
3066;SDS011;1544;48.834;9.194;2023-11-22T15:00:13;4.63;;;4.20;;
3066;SDS011;1544;48.834;9.194;2023-11-22T15:02:50;3.50;;;3.20;;
3066;SDS011;1544;48.834;9.194;2023-11-22T15:05:31;4.83;;;4.33;;
3066;SDS011;1544;48.834;9.194;2023-11-22T15:08:07;5.57;;;3.97;;
3066;SDS011;1544;48.834;9.194;2023-11-22T15:10:43;5.27;;;3.97;;
3066;SDS011;1544;48.834;9.194;2023-11-22T15:13:19;6.17;;;3.77;;
3066;SDS011;1544;48.834;9.194;2023-11-22T15:15:55;4.60;;;4.00;;
3066;SDS011;1544;48.834;9.194;2023-11-22T15:18:31;4.20;;;3.83;;
3066;SDS011;1544;48.834;9.194;2023-11-22T15:21:07;4.13;;;3.73;;
3066;SDS011;1544;48.834;9.194;2023-11-22T15:23:43;6.17;;;4.20;;
3066;SDS011;1544;48.834;9.194;2023-11-22T15:26:21;4.97;;;4.33;;
3066;SDS011;1544;48.834;9.194;2023-11-22T15:28:57;4.27;;;3.60;;
3066;SDS011;1544;48.834;9.194;2023-11-22T15:31:33;4.50;;;4.10;;
3066;SDS011;1544;48.834;9.194;2023-11-22T15:34:10;4.90;;;4.10;;
3066;SDS011;1544;48.834;9.194;2023-11-22T15:36:46;4.97;;;4.30;;
3066;SDS011;1544;48.834;9.194;2023-11-22T15:39:22;4.43;;;3.60;;
3066;SDS011;1544;48.834;9.194;2023-11-22T15:41:58;5.53;;;5.00;;
3066;SDS011;1544;48.834;9.194;2023-11-22T15:44:34;5.30;;;4.37;;
3066;SDS011;1544;48.834;9.194;2023-11-22T15:47:11;5.63;;;4.77;;
3066;SDS011;1544;48.834;9.194;2023-11-22T15:49:49;5.73;;;4.07;;
3066;SDS011;1544;48.834;9.194;2023-11-22T15:52:26;5.43;;;4.37;;
3066;SDS011;1544;48.834;9.194;2023-11-22T15:55:03;4.90;;;4.50;;
3066;SDS011;1544;48.834;9.194;2023-11-22T15:57:40;5.17;;;3.73;;
3066;SDS011;1544;48.834;9.194;2023-11-22T16:00:16;4.40;;;4.00;;
3066;SDS011;1544;48.834;9.194;2023-11-22T16:02:52;4.20;;;3.90;;
3066;SDS011;1544;48.834;9.194;2023-11-22T16:05:29;4.83;;;4.33;;
3066;SDS011;1544;48.834;9.194;2023-11-22T16:08:07;4.50;;;4.10;;
3066;SDS011;1544;48.834;9.194;2023-11-22T16:10:44;5.87;;;4.40;;
3066;SDS011;1544;48.834;9.194;2023-11-22T16:13:20;4.50;;;4.00;;
3066;SDS011;1544;48.834;9.194;2023-11-22T16:15:56;5.47;;;4.67;;
3066;SDS011;1544;48.834;9.194;2023-11-22T16:18:34;4.97;;;4.47;;